Time;durP1;ratioP1;P1;durP2;ratioP2;P2;SDS_P1;SDS_P2;PMS_P1;PMS_P2;Temp;Humidity;BMP_temperature;BMP_pressure;BME280_temperature;BME280_humidity;BME280_pressure;Samples;Min_cycle;Max_cycle;Signal;HPM_P1;HPM_P2
2023/11/09 00:00:24;;;;;;;2.20;1.63;;;;;10.30;97872.00;;;;4956722;28;20078;-62
2023/11/09 00:02:51;;;;;;;2.45;1.50;;;;;10.30;97861.00;;;;4956791;28;20062;-62
2023/11/09 00:05:17;;;;;;;2.30;1.75;;;;;10.40;97857.00;;;;4956026;28;20082;-64
2023/11/09 00:07:44;;;;;;;2.10;1.60;;;;;10.30;97848.00;;;;4956593;28;20560;-63
2023/11/09 00:10:12;;;;;;;2.30;1.45;;;;;10.40;97849.00;;;;4956848;28;20047;-63
2023/11/09 00:12:43;;;;;;;2.38;1.40;;;;;10.30;97845.00;;;;4956708;28;20071;-63
2023/11/09 00:15:10;;;;;;;5.35;1.60;;;;;10.30;97842.00;;;;4956164;28;20046;-63
2023/11/09 00:17:37;;;;;;;3.00;1.42;;;;;10.30;97842.00;;;;4956823;29;20054;-63
2023/11/09 00:20:06;;;;;;;2.70;1.50;;;;;10.30;97838.00;;;;4956979;28;20050;-62
2023/11/09 00:22:34;;;;;;;2.45;1.63;;;;;10.40;97825.00;;;;4954601;28;20066;-62
2023/11/09 00:25:00;;;;;;;4.78;1.33;;;;;10.30;97828.00;;;;4954804;28;20135;-63
2023/11/09 00:27:27;;;;;;;6.07;1.90;;;;;10.30;97826.00;;;;4955334;29;20106;-63
2023/11/09 00:29:54;;;;;;;4.03;1.50;;;;;10.40;97814.00;;;;4955158;28;20142;-63
2023/11/09 00:32:20;;;;;;;4.53;1.45;;;;;10.40;97816.00;;;;4954979;28;20677;-63
2023/11/09 00:34:48;;;;;;;1.95;1.60;;;;;10.40;97807.00;;;;4954130;28;20415;-62
2023/11/09 00:37:15;;;;;;;1.70;1.30;;;;;10.40;97813.00;;;;4954823;28;20102;-63
2023/11/09 00:39:42;;;;;;;3.60;1.25;;;;;10.40;97815.00;;;;4956187;29;20546;-63
2023/11/09 00:42:09;;;;;;;2.53;1.50;;;;;10.40;97813.00;;;;4938965;29;20047;-63
2023/11/09 00:44:36;;;;;;;1.15;1.02;;;;;10.40;97810.00;;;;4955349;28;20043;-63
2023/11/09 00:47:04;;;;;;;1.45;1.10;;;;;10.40;97799.00;;;;4956059;28;20074;-63
2023/11/09 00:49:30;;;;;;;1.55;1.23;;;;;10.40;97805.00;;;;4938631;29;20102;-62
2023/11/09 00:51:57;;;;;;;2.30;1.40;;;;;10.40;97804.00;;;;4954446;28;20059;-62
2023/11/09 00:54:23;;;;;;;2.08;1.48;;;;;10.40;97795.00;;;;4955272;28;20506;-63
2023/11/09 00:56:50;;;;;;;1.85;1.27;;;;;10.40;97795.00;;;;4954396;29;20416;-62
2023/11/09 00:59:16;;;;;;;3.20;1.55;;;;;10.40;97796.00;;;;4954569;28;20058;-62
2023/11/09 01:01:43;;;;;;;3.67;2.00;;;;;10.40;97801.00;;;;4954673;29;20047;-62
2023/11/09 01:04:10;;;;;;;5.43;1.40;;;;;10.40;97784.00;;;;4953811;28;20150;-63
2023/11/09 01:06:37;;;;;;;3.03;1.38;;;;;10.40;97774.00;;;;4955663;28;20496;-62
2023/11/09 01:09:04;;;;;;;4.47;1.38;;;;;10.40;97778.00;;;;4955648;28;20074;-63
2023/11/09 01:11:32;;;;;;;2.63;1.38;;;;;10.40;97777.00;;;;4954242;29;20489;-63
2023/11/09 01:13:59;;;;;;;2.03;1.10;;;;;10.40;97777.00;;;;4953567;28;20141;-63
2023/11/09 01:16:25;;;;;;;1.25;1.15;;;;;10.40;97773.00;;;;4953981;28;20413;-63
2023/11/09 01:18:52;;;;;;;2.70;1.60;;;;;10.40;97766.00;;;;4954114;29;20074;-63
2023/11/09 01:21:19;;;;;;;2.92;1.58;;;;;10.40;97762.00;;;;4954005;28;20058;-63
2023/11/09 01:23:45;;;;;;;1.17;1.08;;;;;10.40;97743.00;;;;4954430;28;20504;-62
2023/11/09 01:26:13;;;;;;;2.33;1.50;;;;;10.40;97748.00;;;;4955092;28;20654;-63
2023/11/09 01:28:40;;;;;;;1.58;1.27;;;;;10.40;97751.00;;;;4954968;28;20496;-62
2023/11/09 01:31:06;;;;;;;4.82;1.25;;;;;10.40;97755.00;;;;4953569;28;20138;-63
2023/11/09 01:33:33;;;;;;;2.05;1.38;;;;;10.40;97756.00;;;;4954045;28;20043;-63
2023/11/09 01:36:00;;;;;;;2.03;1.10;;;;;10.50;97748.00;;;;4953508;28;20106;-62
2023/11/09 01:38:27;;;;;;;3.15;1.35;;;;;10.50;97761.00;;;;4953565;29;20047;-62
2023/11/09 01:40:54;;;;;;;2.90;1.30;;;;;10.50;97752.00;;;;4954658;28;20043;-63
2023/11/09 01:43:21;;;;;;;1.83;1.13;;;;;10.50;97751.00;;;;4954473;28;20436;-64
2023/11/09 01:45:51;;;;;;;3.78;1.30;;;;;10.50;97753.00;;;;4954757;28;20196;-62
2023/11/09 01:48:20;;;;;;;3.38;1.10;;;;;10.50;97753.00;;;;4953976;29;20058;-63
2023/11/09 01:50:47;;;;;;;1.30;1.10;;;;;10.50;97745.00;;;;4954806;28;20126;-62
2023/11/09 01:53:14;;;;;;;2.45;0.85;;;;;10.50;97746.00;;;;4954737;28;20515;-63
2023/11/09 01:55:41;;;;;;;2.33;1.00;;;;;10.40;97739.00;;;;4954207;28;20062;-63
2023/11/09 01:58:08;;;;;;;1.77;1.20;;;;;10.40;97727.00;;;;4954495;28;20074;-63
2023/11/09 02:00:37;;;;;;;10.90;1.02;;;;;10.40;97735.00;;;;4953966;28;20452;-65
2023/11/09 02:03:05;;;;;;;2.67;1.10;;;;;10.40;97737.00;;;;4953929;29;20424;-62
2023/11/09 02:05:37;;;;;;;3.22;1.30;;;;;10.40;97737.00;;;;4954311;28;20043;-63
2023/11/09 02:08:04;;;;;;;1.95;1.05;;;;;10.40;97728.00;;;;4955886;28;20044;-63
2023/11/09 02:10:34;;;;;;;2.20;1.17;;;;;10.40;97736.00;;;;4954479;28;20602;-62
2023/11/09 02:13:02;;;;;;;1.83;1.23;;;;;10.40;97726.00;;;;4954562;28;20489;-63
2023/11/09 02:15:29;;;;;;;1.17;1.05;;;;;10.40;97718.00;;;;4952730;29;20098;-64
2023/11/09 02:17:55;;;;;;;2.35;1.00;;;;;10.40;97715.00;;;;4956699;28;20067;-63
2023/11/09 02:20:23;;;;;;;2.60;1.38;;;;;10.40;97716.00;;;;4957428;29;20051;-64
2023/11/09 02:22:53;;;;;;;2.33;1.02;;;;;10.40;97710.00;;;;4955678;28;20051;-64
2023/11/09 02:25:20;;;;;;;2.30;1.20;;;;;10.40;97705.00;;;;4953764;28;20049;-65
2023/11/09 02:27:47;;;;;;;1.27;1.17;;;;;10.40;97710.00;;;;4953461;28;20047;-64
2023/11/09 02:30:14;;;;;;;1.05;0.98;;;;;10.30;97695.00;;;;4958178;29;20059;-65
2023/11/09 02:32:41;;;;;;;1.08;1.00;;;;;10.30;97694.00;;;;4963242;28;20047;-65
2023/11/09 02:35:08;;;;;;;1.02;0.93;;;;;10.30;97688.00;;;;4963579;28;20063;-65
2023/11/09 02:37:34;;;;;;;1.88;1.10;;;;;10.30;97685.00;;;;4967068;28;20043;-65
2023/11/09 02:40:01;;;;;;;1.25;0.80;;;;;10.30;97689.00;;;;4964907;28;20074;-65
2023/11/09 02:42:28;;;;;;;1.42;1.00;;;;;10.30;97688.00;;;;4967226;29;20062;-65
2023/11/09 02:44:55;;;;;;;1.65;0.93;;;;;10.30;97674.00;;;;4946520;29;20139;-64
2023/11/09 02:47:21;;;;;;;1.98;1.02;;;;;10.30;97683.00;;;;4963105;28;20106;-65
2023/11/09 02:49:48;;;;;;;1.50;1.25;;;;;10.30;97681.00;;;;4958044;29;20333;-65
2023/11/09 02:52:15;;;;;;;1.75;0.93;;;;;10.30;97678.00;;;;4961923;29;20043;-64
2023/11/09 02:54:42;;;;;;;2.63;1.30;;;;;10.30;97678.00;;;;4959642;28;20123;-63
2023/11/09 02:57:11;;;;;;;3.03;1.10;;;;;10.30;97683.00;;;;4960034;28;20059;-64
2023/11/09 02:59:43;;;;;;;1.00;0.85;;;;;10.30;97668.00;;;;4957572;29;20049;-65
2023/11/09 03:02:10;;;;;;;1.83;1.25;;;;;10.30;97669.00;;;;4942177;28;20057;-65
2023/11/09 03:04:38;;;;;;;1.25;1.08;;;;;10.30;97664.00;;;;4956985;29;20114;-65
2023/11/09 03:07:08;;;;;;;1.10;1.00;;;;;10.30;97666.00;;;;4958428;28;20043;-63
2023/11/09 03:09:36;;;;;;;2.55;1.15;;;;;10.30;97663.00;;;;4957166;28;20511;-65
2023/11/09 03:12:06;;;;;;;3.55;1.20;;;;;10.30;97661.00;;;;4956300;28;20055;-65
2023/11/09 03:14:33;;;;;;;1.40;1.10;;;;;10.30;97666.00;;;;4954525;28;20087;-64
2023/11/09 03:17:09;;;;;;;2.45;1.10;;;;;10.30;97660.00;;;;4955073;29;20047;-65
2023/11/09 03:19:36;;;;;;;3.78;0.90;;;;;10.30;97652.00;;;;4954762;28;20055;-64
2023/11/09 03:22:07;;;;;;;2.05;1.23;;;;;10.40;97646.00;;;;4938679;29;20113;-65
2023/11/09 03:24:34;;;;;;;2.20;1.42;;;;;10.40;97645.00;;;;4957124;29;20047;-64
2023/11/09 03:27:02;;;;;;;3.85;1.13;;;;;10.40;97647.00;;;;4959950;28;20488;-65
2023/11/09 03:29:29;;;;;;;1.70;1.10;;;;;10.40;97642.00;;;;4958671;28;20058;-65
2023/11/09 03:31:55;;;;;;;2.58;1.20;;;;;10.40;97640.00;;;;4957535;28;20074;-65
2023/11/09 03:34:23;;;;;;;2.97;1.83;;;;;10.40;97636.00;;;;4942588;29;20083;-65
2023/11/09 03:36:52;;;;;;;3.05;1.40;;;;;10.40;97637.00;;;;4960486;28;20050;-64
2023/11/09 03:39:21;;;;;;;2.58;1.40;;;;;10.40;97645.00;;;;4957074;28;20043;-62
2023/11/09 03:41:48;;;;;;;3.10;1.20;;;;;10.40;97634.00;;;;4952834;28;20523;-63
2023/11/09 03:44:15;;;;;;;1.83;1.40;;;;;10.40;97640.00;;;;4952700;28;20050;-63
2023/11/09 03:46:41;;;;;;;2.17;1.33;;;;;10.40;97635.00;;;;4953476;28;20039;-63
2023/11/09 03:49:09;;;;;;;5.35;1.30;;;;;10.40;97626.00;;;;4953694;28;20050;-63
2023/11/09 03:51:36;;;;;;;2.88;1.30;;;;;10.40;97625.00;;;;4953422;28;20047;-65
2023/11/09 03:54:03;;;;;;;1.42;1.20;;;;;10.40;97622.00;;;;4956445;28;20086;-63
2023/11/09 03:56:29;;;;;;;4.18;1.50;;;;;10.30;97616.00;;;;4953383;28;20118;-63
2023/11/09 03:58:56;;;;;;;1.83;1.10;;;;;10.40;97614.00;;;;4955502;28;20051;-63
2023/11/09 04:01:23;;;;;;;5.85;1.58;;;;;10.30;97621.00;;;;4956785;28;20126;-63
2023/11/09 04:03:49;;;;;;;3.45;1.83;;;;;10.30;97621.00;;;;4955073;29;20051;-62
2023/11/09 04:06:17;;;;;;;1.48;1.17;;;;;10.30;97615.00;;;;4956628;28;20061;-62
2023/11/09 04:08:45;;;;;;;1.80;1.25;;;;;10.20;97612.00;;;;4956597;28;20043;-62
2023/11/09 04:11:11;;;;;;;2.00;1.30;;;;;10.20;97604.00;;;;4955215;29;20488;-62
2023/11/09 04:13:39;;;;;;;3.30;1.55;;;;;10.30;97609.00;;;;4955781;28;20047;-63
2023/11/09 04:16:08;;;;;;;1.83;1.30;;;;;10.30;97609.00;;;;4955296;29;20051;-63
2023/11/09 04:18:37;;;;;;;3.03;1.58;;;;;10.30;97603.00;;;;4954986;29;20051;-65
2023/11/09 04:21:05;;;;;;;2.45;1.20;;;;;10.40;97594.00;;;;4956263;29;20428;-63
2023/11/09 04:23:31;;;;;;;3.72;1.52;;;;;10.40;97593.00;;;;4954493;28;20047;-63
2023/11/09 04:25:58;;;;;;;2.05;1.42;;;;;10.40;97594.00;;;;4956223;28;20047;-63
2023/11/09 04:28:24;;;;;;;2.08;1.30;;;;;10.50;97599.00;;;;4956230;28;20047;-63
2023/11/09 04:30:51;;;;;;;3.60;1.40;;;;;10.50;97593.00;;;;4955084;29;20397;-64
2023/11/09 04:33:19;;;;;;;3.17;1.60;;;;;10.50;97588.00;;;;4956083;29;20077;-62
2023/11/09 04:35:46;;;;;;;2.95;1.63;;;;;10.50;97577.00;;;;4955598;28;20176;-65
2023/11/09 04:38:15;;;;;;;2.75;1.30;;;;;10.60;97572.00;;;;4954720;28;20047;-63
2023/11/09 04:40:44;;;;;;;4.00;1.30;;;;;10.60;97575.00;;;;4954663;28;20051;-62
2023/11/09 04:43:11;;;;;;;2.70;1.23;;;;;10.60;97562.00;;;;4954478;28;20103;-63
2023/11/09 04:45:42;;;;;;;2.35;1.30;;;;;10.70;97565.00;;;;4955192;28;20070;-63
2023/11/09 04:48:19;;;;;;;2.63;1.05;;;;;10.70;97555.00;;;;4955918;28;20051;-63
2023/11/09 04:51:00;;;;;;;2.60;1.30;;;;;10.70;97567.00;;;;4955704;28;20051;-63
2023/11/09 04:53:30;;;;;;;4.13;1.30;;;;;10.70;97567.00;;;;4953731;28;20083;-63
2023/11/09 04:56:04;;;;;;;2.45;1.20;;;;;10.80;97555.00;;;;4938585;28;20047;-63
2023/11/09 04:59:01;;;;;;;2.15;1.23;;;;;10.80;97561.00;;;;4955611;28;20086;-63
2023/11/09 05:07:06;;;;;;;2.88;1.25;;;;;10.80;97558.00;;;;4955470;28;20054;-63
2023/11/09 05:09:33;;;;;;;2.40;1.23;;;;;10.80;97548.00;;;;4955000;28;20051;-63
2023/11/09 05:11:59;;;;;;;1.30;0.95;;;;;10.80;97545.00;;;;4953995;29;20047;-63
2023/11/09 05:14:26;;;;;;;1.52;1.13;;;;;10.80;97565.00;;;;4954566;28;20412;-62
2023/11/09 05:16:52;;;;;;;1.52;1.00;;;;;10.90;97557.00;;;;4955271;28;20045;-62
2023/11/09 05:19:19;;;;;;;2.88;1.30;;;;;10.90;97550.00;;;;4955086;28;20047;-62
2023/11/09 05:21:47;;;;;;;2.38;1.10;;;;;10.90;97547.00;;;;4955333;28;20415;-62
2023/11/09 05:24:14;;;;;;;1.80;1.00;;;;;10.90;97552.00;;;;4954786;28;20051;-63
2023/11/09 05:26:41;;;;;;;1.20;1.10;;;;;11.00;97553.00;;;;4955209;28;20046;-64
2023/11/09 05:29:09;;;;;;;1.45;1.05;;;;;11.00;97564.00;;;;4955553;28;20047;-62
2023/11/09 05:31:37;;;;;;;3.65;1.15;;;;;11.00;97563.00;;;;4953817;28;20073;-62
2023/11/09 05:34:04;;;;;;;3.58;1.35;;;;;11.00;97565.00;;;;4954352;28;20058;-62
2023/11/09 05:36:34;;;;;;;2.17;1.52;;;;;10.90;97557.00;;;;4955024;28;20047;-63
2023/11/09 05:39:04;;;;;;;1.50;1.08;;;;;10.90;97563.00;;;;4954805;28;20462;-62
2023/11/09 05:41:32;;;;;;;3.13;1.42;;;;;10.90;97569.00;;;;4953707;29;20047;-62
2023/11/09 05:43:58;;;;;;;1.83;1.20;;;;;10.80;97563.00;;;;4952883;28;20170;-62
2023/11/09 05:46:25;;;;;;;1.17;0.90;;;;;10.80;97564.00;;;;4954953;28;20390;-62
2023/11/09 05:48:52;;;;;;;1.60;1.08;;;;;10.70;97566.00;;;;4953564;28;20051;-63
2023/11/09 05:51:23;;;;;;;2.53;1.17;;;;;10.70;97561.00;;;;4954643;28;20142;-63
2023/11/09 05:53:50;;;;;;;2.28;1.20;;;;;10.60;97560.00;;;;4952872;29;20055;-63
2023/11/09 05:56:17;;;;;;;1.35;1.25;;;;;10.50;97565.00;;;;4953395;29;20053;-63
2023/11/09 05:58:44;;;;;;;2.80;1.40;;;;;10.50;97566.00;;;;4954661;28;20039;-62
2023/11/09 06:01:11;;;;;;;4.13;1.20;;;;;10.40;97564.00;;;;4954656;28;20047;-62
2023/11/09 06:03:38;;;;;;;2.75;1.30;;;;;10.40;97564.00;;;;4954025;28;20067;-62
2023/11/09 06:06:05;;;;;;;6.70;1.00;;;;;10.40;97552.00;;;;4953523;29;20050;-63
2023/11/09 06:08:34;;;;;;;1.77;1.48;;;;;10.30;97545.00;;;;4953909;29;20043;-63
2023/11/09 06:11:07;;;;;;;4.05;1.50;;;;;10.30;97545.00;;;;4954788;28;20061;-64
2023/11/09 06:13:33;;;;;;;4.00;1.42;;;;;10.30;97554.00;;;;4954116;28;20043;-61
2023/11/09 06:16:02;;;;;;;1.70;1.35;;;;;10.30;97548.00;;;;4954421;28;20055;-63
2023/11/09 06:18:29;;;;;;;5.88;1.38;;;;;10.30;97545.00;;;;4954176;28;20069;-64
2023/11/09 06:20:57;;;;;;;2.90;1.40;;;;;10.30;97543.00;;;;4952163;28;20059;-64
2023/11/09 06:23:24;;;;;;;2.00;1.40;;;;;10.30;97539.00;;;;4953695;28;20061;-64
2023/11/09 06:25:51;;;;;;;2.75;1.63;;;;;10.30;97534.00;;;;4954345;28;20712;-63
2023/11/09 06:28:18;;;;;;;3.83;1.35;;;;;10.30;97542.00;;;;4954235;28;20122;-63
2023/11/09 06:30:45;;;;;;;2.60;1.60;;;;;10.30;97534.00;;;;4952778;28;20141;-64
2023/11/09 06:33:12;;;;;;;3.70;1.60;;;;;10.30;97545.00;;;;4952882;29;20043;-63
2023/11/09 06:35:40;;;;;;;3.75;1.75;;;;;10.30;97528.00;;;;4952183;28;20051;-64
2023/11/09 06:38:10;;;;;;;3.45;1.40;;;;;10.30;97541.00;;;;4953930;28;20418;-66
2023/11/09 06:40:37;;;;;;;3.50;2.40;;;;;10.30;97534.00;;;;4954031;28;20133;-65
2023/11/09 06:43:04;;;;;;;4.75;1.50;;;;;10.20;97537.00;;;;4954003;28;20043;-64
2023/11/09 06:45:31;;;;;;;4.32;1.40;;;;;10.20;97537.00;;;;4953328;28;20110;-63
2023/11/09 06:47:58;;;;;;;6.60;3.58;;;;;10.20;97532.00;;;;4953871;28;20070;-64
2023/11/09 06:50:25;;;;;;;4.18;1.70;;;;;10.20;97541.00;;;;4953912;28;20058;-63
2023/11/09 06:52:55;;;;;;;4.00;1.80;;;;;10.20;97536.00;;;;4952746;29;20146;-66
2023/11/09 06:55:22;;;;;;;2.33;1.50;;;;;10.20;97555.00;;;;4952034;29;20055;-64
2023/11/09 06:57:50;;;;;;;5.82;2.10;;;;;10.10;97545.00;;;;4953892;28;20126;-64
2023/11/09 07:00:19;;;;;;;4.07;2.05;;;;;10.10;97542.00;;;;4953795;28;20122;-64
2023/11/09 07:02:49;;;;;;;4.25;1.77;;;;;10.10;97546.00;;;;4953758;28;20507;-64
2023/11/09 07:05:16;;;;;;;5.22;1.67;;;;;10.10;97545.00;;;;4953310;28;20393;-62
2023/11/09 07:07:43;;;;;;;3.33;1.85;;;;;10.10;97543.00;;;;4953776;28;20560;-61
2023/11/09 07:10:09;;;;;;;5.70;1.95;;;;;10.10;97545.00;;;;4953875;28;20051;-61
2023/11/09 07:12:37;;;;;;;2.50;1.67;;;;;10.10;97551.00;;;;4953561;28;20070;-62
2023/11/09 07:15:04;;;;;;;2.22;1.50;;;;;10.10;97549.00;;;;4953217;28;20043;-62
2023/11/09 07:17:31;;;;;;;8.65;1.80;;;;;10.10;97546.00;;;;4953755;28;20047;-63
2023/11/09 07:19:59;;;;;;;2.58;1.42;;;;;10.20;97552.00;;;;4953684;28;20090;-63
2023/11/09 07:22:25;;;;;;;4.70;2.22;;;;;10.20;97551.00;;;;4953747;28;20047;-63
2023/11/09 07:24:53;;;;;;;3.10;1.85;;;;;10.30;97560.00;;;;4951778;29;20111;-66
2023/11/09 07:27:35;;;;;;;3.33;1.60;;;;;10.30;97561.00;;;;4952420;29;20047;-61
2023/11/09 07:30:02;;;;;;;4.38;2.05;;;;;10.30;97557.00;;;;4952137;29;20047;-61
2023/11/09 07:32:29;;;;;;;4.22;2.13;;;;;10.30;97567.00;;;;4955270;28;20118;-62
2023/11/09 07:34:57;;;;;;;3.70;1.92;;;;;10.30;97564.00;;;;4956452;28;20039;-61
2023/11/09 07:37:24;;;;;;;1.88;1.63;;;;;10.30;97567.00;;;;4955864;28;20059;-64
2023/11/09 07:39:50;;;;;;;3.45;2.08;;;;;10.30;97571.00;;;;4957011;28;20059;-64
2023/11/09 07:42:17;;;;;;;4.30;1.20;;;;;10.30;97567.00;;;;4957038;28;20122;-63
2023/11/09 07:44:43;;;;;;;4.68;1.70;;;;;10.30;97568.00;;;;4956182;28;20053;-64
2023/11/09 07:47:10;;;;;;;3.10;1.45;;;;;10.30;97569.00;;;;4955707;29;20058;-64
2023/11/09 07:49:36;;;;;;;1.90;1.50;;;;;10.30;97565.00;;;;4956912;28;20122;-66
2023/11/09 07:52:05;;;;;;;2.50;1.67;;;;;10.20;97559.00;;;;4956758;28;20074;-66
2023/11/09 07:54:32;;;;;;;2.58;1.50;;;;;10.20;97563.00;;;;4956054;28;20052;-65
2023/11/09 07:57:01;;;;;;;1.58;1.23;;;;;10.20;97562.00;;;;4956793;28;20051;-66
2023/11/09 07:59:28;;;;;;;3.63;2.20;;;;;10.20;97559.00;;;;4939578;28;20051;-64
2023/11/09 08:01:55;;;;;;;4.25;2.20;;;;;10.10;97547.00;;;;4955309;28;20050;-65
2023/11/09 08:04:27;;;;;;;3.83;2.10;;;;;10.20;97561.00;;;;4955972;28;20075;-65
2023/11/09 08:06:54;;;;;;;4.10;1.90;;;;;10.20;97553.00;;;;4954886;29;20071;-65
2023/11/09 08:09:21;;;;;;;1.80;1.58;;;;;10.30;97549.00;;;;4956582;28;20115;-65
2023/11/09 08:11:48;;;;;;;4.68;1.80;;;;;10.30;97543.00;;;;4955183;28;20059;-65
2023/11/09 08:14:14;;;;;;;3.08;1.75;;;;;10.30;97540.00;;;;4955784;28;20051;-64
2023/11/09 08:16:41;;;;;;;2.22;1.30;;;;;10.40;97541.00;;;;4956332;28;20102;-66
2023/11/09 08:19:08;;;;;;;2.65;1.20;;;;;10.40;97542.00;;;;4955016;29;20507;-66
2023/11/09 08:21:36;;;;;;;2.47;1.60;;;;;10.50;97535.00;;;;4956174;28;20085;-66
2023/11/09 08:24:03;;;;;;;1.33;1.23;;;;;10.50;97533.00;;;;4955637;28;20510;-66
2023/11/09 08:26:30;;;;;;;2.22;1.65;;;;;10.60;97536.00;;;;4956329;28;20114;-66
2023/11/09 08:28:57;;;;;;;1.38;1.27;;;;;10.60;97534.00;;;;4956198;28;20556;-63
2023/11/09 08:31:25;;;;;;;1.25;1.10;;;;;10.60;97541.00;;;;4955052;29;20047;-63
2023/11/09 08:33:55;;;;;;;2.40;1.02;;;;;10.70;97539.00;;;;4954281;28;20055;-66
2023/11/09 08:36:22;;;;;;;1.40;1.17;;;;;10.80;97528.00;;;;4956163;28;20070;-66
2023/11/09 08:38:48;;;;;;;1.55;1.00;;;;;10.80;97534.00;;;;4954954;29;20125;-65
2023/11/09 08:41:15;;;;;;;1.88;0.80;;;;;10.90;97532.00;;;;4956030;28;20059;-66
2023/11/09 08:43:42;;;;;;;2.70;1.42;;;;;10.80;97547.00;;;;4954596;28;20061;-64
2023/11/09 08:46:10;;;;;;;2.55;1.75;;;;;10.70;97534.00;;;;4955901;28;20078;-66
2023/11/09 08:48:40;;;;;;;2.08;1.15;;;;;10.70;97534.00;;;;4955822;28;20059;-64
2023/11/09 08:51:12;;;;;;;1.88;1.25;;;;;10.70;97533.00;;;;4955816;28;20090;-66
2023/11/09 08:53:38;;;;;;;2.80;1.40;;;;;10.60;97533.00;;;;4955311;28;20054;-68
2023/11/09 08:56:06;;;;;;;1.20;1.10;;;;;10.60;97533.00;;;;4954706;29;20054;-64
2023/11/09 08:58:36;;;;;;;1.33;1.00;;;;;10.60;97529.00;;;;4955512;28;20043;-66
2023/11/09 09:01:06;;;;;;;2.50;1.45;;;;;10.60;97524.00;;;;4954281;29;20074;-65
2023/11/09 09:03:33;;;;;;;2.20;1.65;;;;;10.60;97526.00;;;;4954848;28;20103;-65
2023/11/09 09:06:00;;;;;;;2.25;1.50;;;;;10.60;97524.00;;;;4955276;28;20076;-66
2023/11/09 09:08:26;;;;;;;1.80;1.20;;;;;10.70;97532.00;;;;4954231;29;20496;-66
2023/11/09 09:10:56;;;;;;;3.20;2.30;;;;;10.70;97530.00;;;;4954185;28;20050;-65
2023/11/09 09:13:24;;;;;;;1.60;1.50;;;;;10.80;97515.00;;;;4954845;28;20567;-65
2023/11/09 09:15:53;;;;;;;2.60;1.15;;;;;10.80;97519.00;;;;4955384;28;20616;-66
2023/11/09 09:18:20;;;;;;;2.35;1.10;;;;;10.80;97516.00;;;;4955240;28;20412;-65
2023/11/09 09:20:48;;;;;;;3.90;1.25;;;;;10.80;97514.00;;;;4955210;28;20514;-66
2023/11/09 09:23:16;;;;;;;3.80;1.80;;;;;10.80;97521.00;;;;4954039;29;20048;-65
2023/11/09 09:25:47;;;;;;;2.58;1.13;;;;;10.90;97526.00;;;;4953838;29;20043;-65
2023/11/09 09:28:14;;;;;;;2.25;1.42;;;;;10.90;97517.00;;;;4955608;28;20043;-64
2023/11/09 09:30:41;;;;;;;3.75;2.25;;;;;10.90;97524.00;;;;4955255;28;20054;-65
2023/11/09 09:33:07;;;;;;;2.35;1.80;;;;;10.90;97516.00;;;;4953772;28;20051;-65
2023/11/09 09:35:34;;;;;;;2.42;0.88;;;;;10.90;97511.00;;;;4954529;28;20113;-65
2023/11/09 09:38:11;;;;;;;3.90;1.70;;;;;11.00;97513.00;;;;4954991;28;20059;-65
2023/11/09 09:40:39;;;;;;;2.50;1.33;;;;;11.00;97516.00;;;;4954879;28;20047;-65
2023/11/09 09:43:16;;;;;;;1.85;1.52;;;;;10.90;97519.00;;;;4954933;28;20421;-63
2023/11/09 09:45:46;;;;;;;3.28;1.98;;;;;10.90;97510.00;;;;4954266;28;20052;-65
2023/11/09 09:48:14;;;;;;;2.95;1.95;;;;;10.90;97523.00;;;;4953778;29;20464;-65
2023/11/09 09:50:42;;;;;;;3.95;2.25;;;;;10.90;97522.00;;;;4954511;28;20051;-65
2023/11/09 09:53:09;;;;;;;4.10;2.58;;;;;11.00;97518.00;;;;4954710;28;20047;-65
2023/11/09 09:55:36;;;;;;;1.55;1.20;;;;;11.00;97521.00;;;;4952563;28;20528;-65
2023/11/09 09:58:05;;;;;;;6.05;5.55;;;;;11.10;97518.00;;;;4954504;28;20043;-65
2023/11/09 10:00:33;;;;;;;21.80;14.63;;;;;11.10;97523.00;;;;4954409;28;20055;-66
2023/11/09 10:03:02;;;;;;;1.48;1.33;;;;;11.10;97523.00;;;;4954483;28;20106;-66
2023/11/09 10:05:33;;;;;;;1.25;1.10;;;;;11.20;97520.00;;;;4953774;28;20047;-65
2023/11/09 10:08:12;;;;;;;1.00;0.90;;;;;11.20;97512.00;;;;4953232;29;20061;-66
2023/11/09 10:10:41;;;;;;;1.15;1.05;;;;;11.20;97512.00;;;;4954464;28;20390;-66
2023/11/09 10:13:15;;;;;;;5.88;2.08;;;;;11.10;97512.00;;;;4954461;28;20051;-66
2023/11/09 10:15:43;;;;;;;;;;;;;11.20;97504.00;;;;4954419;28;20150;-64
2023/11/09 10:18:11;;;;;;;2.42;1.83;;;;;11.20;97510.00;;;;4954303;28;19926;-63
2023/11/09 10:20:40;;;;;;;2.42;1.25;;;;;11.30;97510.00;;;;4954221;28;20450;-63
2023/11/09 10:23:11;;;;;;;1.77;0.93;;;;;11.30;97501.00;;;;4953241;29;20051;-63
2023/11/09 10:25:41;;;;;;;1.52;1.13;;;;;11.30;97509.00;;;;4953629;28;20058;-64
2023/11/09 10:28:13;;;;;;;1.20;0.73;;;;;11.30;97493.00;;;;4954406;28;20051;-63
2023/11/09 10:30:44;;;;;;;1.13;0.90;;;;;11.30;97515.00;;;;4954090;28;20039;-62
2023/11/09 10:33:14;;;;;;;1.58;1.45;;;;;11.30;97504.00;;;;4953136;29;20055;-62
2023/11/09 10:35:41;;;;;;;2.45;1.10;;;;;11.30;97499.00;;;;4953569;28;20082;-65
2023/11/09 10:38:12;;;;;;;1.98;1.27;;;;;11.20;97498.00;;;;4937559;29;20496;-65
2023/11/09 10:40:43;;;;;;;1.88;1.38;;;;;11.20;97498.00;;;;4953490;29;20047;-66
2023/11/09 10:43:33;;;;;;;1.35;1.20;;;;;11.20;97499.00;;;;4953344;28;20051;-66
2023/11/09 10:46:04;;;;;;;3.65;1.33;;;;;11.20;97488.00;;;;4954267;28;20047;-64
2023/11/09 10:48:34;;;;;;;2.92;2.25;;;;;11.20;97488.00;;;;4954023;28;20061;-65
2023/11/09 10:51:03;;;;;;;2.55;1.55;;;;;11.30;97485.00;;;;4953985;28;20043;-66
2023/11/09 10:53:32;;;;;;;2.78;1.17;;;;;11.30;97488.00;;;;4936107;29;20083;-66
2023/11/09 10:55:59;;;;;;;2.08;1.30;;;;;11.40;97479.00;;;;4953892;28;20048;-66
2023/11/09 10:58:33;;;;;;;1.77;1.10;;;;;11.50;97477.00;;;;4953938;28;20512;-64
2023/11/09 11:01:02;;;;;;;2.80;2.00;;;;;11.60;97482.00;;;;4954576;28;20043;-66
2023/11/09 11:03:33;;;;;;;3.65;2.35;;;;;11.70;97465.00;;;;4953822;28;20476;-66
2023/11/09 11:06:06;;;;;;;3.05;2.13;;;;;11.80;97466.00;;;;4953594;28;20039;-66
2023/11/09 11:08:41;;;;;;;3.75;2.30;;;;;11.90;97470.00;;;;4956715;29;20051;-66
2023/11/09 11:11:13;;;;;;;1.70;1.35;;;;;11.90;97472.00;;;;4957817;28;20067;-66
2023/11/09 11:13:43;;;;;;;1.80;1.50;;;;;12.00;97470.00;;;;4957156;28;20089;-66
2023/11/09 11:16:16;;;;;;;1.50;1.10;;;;;12.10;97470.00;;;;4940763;28;20457;-66
2023/11/09 11:19:06;;;;;;;2.43;1.50;;;;;12.20;97470.00;;;;4956306;29;20050;-65
2023/11/09 11:22:08;;;;;;;1.50;1.38;;;;;12.30;97464.00;;;;4960092;28;20126;-65
2023/11/09 11:25:03;;;;;;;1.02;0.93;;;;;12.30;97454.00;;;;4956900;28;20564;-65
2023/11/09 11:27:37;;;;;;;1.40;0.93;;;;;12.40;97456.00;;;;4956275;29;20137;-66
2023/11/09 11:30:13;;;;;;;1.13;1.02;;;;;12.40;97461.00;;;;4957395;28;20085;-66
2023/11/09 11:32:40;;;;;;;1.67;0.90;;;;;12.40;97459.00;;;;4957250;28;20552;-66
2023/11/09 11:35:07;;;;;;;1.10;1.00;;;;;12.40;97468.00;;;;4955596;29;20114;-66
2023/11/09 11:37:33;;;;;;;2.22;1.10;;;;;12.40;97461.00;;;;4958190;28;20039;-67
2023/11/09 11:40:05;;;;;;;1.30;0.75;;;;;12.40;97465.00;;;;4941368;29;20500;-66
2023/11/09 11:42:34;;;;;;;1.10;0.70;;;;;12.50;97458.00;;;;4957324;28;20075;-66
2023/11/09 11:45:03;;;;;;;2.10;0.90;;;;;12.50;97451.00;;;;4956619;28;20420;-66
2023/11/09 11:47:30;;;;;;;1.30;0.80;;;;;12.60;97442.00;;;;4957298;28;20457;-66
2023/11/09 11:50:00;;;;;;;0.88;0.88;;;;;12.70;97447.00;;;;4955954;29;20134;-68
2023/11/09 11:52:30;;;;;;;1.30;0.63;;;;;12.80;97454.00;;;;4957058;28;20511;-65
2023/11/09 11:55:00;;;;;;;0.88;0.73;;;;;12.90;97438.00;;;;4956453;28;20070;-67
2023/11/09 11:57:31;;;;;;;1.50;1.08;;;;;12.90;97436.00;;;;4957283;28;20054;-68
2023/11/09 12:00:04;;;;;;;0.60;0.60;;;;;13.00;97441.00;;;;4955831;29;20508;-66
2023/11/09 12:02:33;;;;;;;1.13;1.02;;;;;13.10;97446.00;;;;4956976;28;20039;-68
2023/11/09 12:05:00;;;;;;;1.10;0.70;;;;;13.30;97446.00;;;;4956128;28;20114;-65
2023/11/09 12:07:29;;;;;;;1.23;0.75;;;;;13.30;97444.00;;;;4955338;28;20514;-66
2023/11/09 12:09:57;;;;;;;0.65;0.63;;;;;13.30;97457.00;;;;4939685;29;20150;-66
2023/11/09 12:12:26;;;;;;;0.98;0.63;;;;;13.20;97445.00;;;;4956664;28;20134;-66
2023/11/09 12:14:54;;;;;;;1.20;0.60;;;;;13.20;97444.00;;;;4955722;28;20094;-66
2023/11/09 12:17:25;;;;;;;0.55;0.55;;;;;13.20;97440.00;;;;4955450;29;20047;-66
2023/11/09 12:19:53;;;;;;;0.93;0.75;;;;;13.20;97435.00;;;;4955274;28;20065;-65
2023/11/09 12:22:23;;;;;;;0.65;0.60;;;;;13.10;97434.00;;;;4955311;29;20135;-66
2023/11/09 12:25:00;;;;;;;1.38;1.20;;;;;13.00;97432.00;;;;4955762;28;20055;-66
2023/11/09 12:27:27;;;;;;;0.60;0.60;;;;;13.00;97425.00;;;;4956285;28;20102;-66
2023/11/09 12:29:53;;;;;;;0.90;0.82;;;;;13.00;97427.00;;;;4956500;28;20039;-66